Saint Paul, MN (55101)

5:04 PM CDT on July 25, 2016 (GMT -0500)
Frogtown | | Change Station

Elev 883 ft 44.96 °N, 93.13 °W | Updated 12 minutes ago

Clear
Clear
86.2 °F
Feels Like 92 °F
N
1.7
Wind Variable Wind from South

Today
High -- | Low -- °F
--% Chance of Precip.
Yesterday
High -- | Low -- °F
Precip. -- in
Pressure 30.00 in
Visibility 10.0 miles
Clouds Clear
Heat Index 92 °F
Dew Point 71 °F
Humidity 61%
Rainfall 0.00 in
Snow Depth Not available.
5:50 AM 8:46 PM
Waning Gibbous, 62% visible
METAR KSTP 252153Z 33005KT 10SM CLR 29/17 A3002 RMK AO2 SLP159 T02940167
Pressure 30.00 in
Visibility 10.0 miles
Clouds Clear
Heat Index 92 °F
Dew Point 71 °F
Humidity 61%
Rainfall 0.00 in
Snow Depth Not available.
5:50 AM 8:46 PM
Waning Gibbous, 62% visible
METAR KSTP 252153Z 33005KT 10SM CLR 29/17 A3002 RMK AO2 SLP159 T02940167

10-Day Weather Forecast

Almanac

Astronomy

Jul. 25, 2016 Rise Set
Actual Time
Civil Twilight
Nautical Twilight
Astronomical Twilight
Moon
Length of Visible Light
Length of Day
Tomorrow will be .
, % of the Moon is Illuminated

Today's Extremes

State Highs State Lows

Community

WunderPhotos

Upload Photos

1,927,426 photos uploaded!

WunderBlog® & News

Nearby

Air Quality

  Air Quality AQ Index Pollutant
Not available.

Snow Depth

Station Depth Elevation

Earthquake Activity

City Distance Mag. Time & Date
Minimum magnitude displayed is 2.5.

Coastal Water Temperatures

Place Temperature

Stations

Nearby Weather Stations

Station Location Temp. Windchill Dew Point Humidity Wind Precip. Elev Updated Type
                   

Watches & Warnings

There are currently no watches in effect.